Date,TemperatureHighF,TemperatureAvgF,TemperatureLowF,DewpointHighF,DewpointAvgF,DewpointLowF,HumidityHigh,HumidityAvg,HumidityLow,PressureMaxIn,PressureMinIn,WindSpeedMaxMPH,WindSpeedAvgMPH,GustSpeedMaxMPH,PrecipitationSumIn
2013-1-1,47.0,33.6,22.0,9.0,4.3,-2.0,49,30,20,30.03,29.91,11,3,14,0.00
2013-1-2,57.0,38.8,22.0,14.0,3.6,-6.0,39,23,18,30.03,29.91,6,3,8,0.00
2013-1-3,57.0,38.9,23.0,14.0,3.0,-6.0,37,22,18,30.06,29.91,6,2,10,0.00
2013-1-4,56.0,34.3,21.0,14.0,-1.4,-11.0,23,21,18,30.09,29.97,5,2,6,0.00
2013-1-5,55.0,37.6,23.0,14.0,0.9,-9.0,23,21,18,30.12,29.91,8,2,12,0.00
2013-1-6,51.0,38.8,25.0,35.0,9.7,-8.0,95,35,20,29.91,29.76,13,5,20,0.12
2013-1-7,54.0,39.9,32.0,37.0,22.1,5.0,100,59,19,29.94,29.76,11,5,14,0.04
2013-1-8,68.0,47.0,33.0,23.0,17.9,9.0,53,33,16,30.00,29.85,6,2,8,0.04
2013-1-9,68.0,46.8,34.0,27.0,21.8,13.0,66,40,16,30.00,29.70,5,1,7,0.00
2013-1-10,54.0,39.3,33.0,33.0,16.8,5.0,99,44,19,29.76,29.59,20,12,29,0.00
2013-1-11,41.0,33.8,27.0,11.0,7.8,3.0,42,34,22,29.88,29.76,16,11,22,0.00
2013-1-12,43.0,30.1,19.0,12.0,4.5,-5.0,59,35,19,29.91,29.79,5,2,7,0.00
2013-1-13,43.0,28.2,15.0,6.0,0.1,-8.0,50,31,19,29.91,29.79,4,2,9,0.00
2013-1-14,39.0,28.1,14.0,1.0,-5.6,-14.0,29,22,19,30.12,29.91,6,2,9,0.00
2013-1-15,51.0,38.5,20.0,11.0,2.6,-12.0,26,22,20,30.24,30.06,8,3,13,0.00
2013-1-16,59.0,44.8,28.0,16.0,10.2,1.0,47,25,18,30.21,30.06,8,3,10,0.00
2013-1-17,61.0,46.7,31.0,16.0,7.5,-2.0,26,20,17,30.15,30.03,6,2,8,0.00
2013-1-18,63.0,45.7,29.0,18.0,7.1,-2.0,31,20,17,30.09,30.00,7,2,10,0.00
2013-1-19,66.0,44.9,27.0,19.0,6.1,-5.0,27,20,16,30.12,30.00,5,2,7,0.00
2013-1-20,67.0,44.2,26.0,19.0,5.0,-7.0,25,20,16,30.06,29.97,5,2,6,0.00
2013-1-21,67.0,44.4,28.0,19.0,4.9,-6.0,22,19,16,30.03,29.94,6,2,8,0.00
2013-1-22,66.0,44.7,30.0,19.0,5.1,-5.0,21,19,16,30.03,29.91,9,2,12,0.00
2013-1-23,68.0,51.0,39.0,20.0,9.6,0.0,22,19,16,30.00,29.91,5,1,7,0.00
2013-1-24,62.0,53.5,48.0,43.0,27.9,11.0,72,39,18,30.03,29.88,6,2,9,0.00
2013-1-25,53.0,49.2,45.0,50.0,44.3,32.0,99,84,55,30.03,29.82,7,1,9,0.20
2013-1-26,63.0,54.2,50.0,62.0,44.7,33.0,100,74,42,29.82,29.70,10,4,15,0.20
2013-1-27,54.0,46.6,35.0,42.0,33.7,14.0,95,64,22,29.79,29.67,17,6,24,0.00
2013-1-28,47.0,38.6,34.0,23.0,14.8,6.0,62,38,21,29.91,29.73,17,11,21,0.00
2013-1-29,59.0,44.1,34.0,22.0,13.9,11.0,44,30,18,30.00,29.85,16,8,24,0.00
2013-1-30,66.0,49.3,38.0,21.0,17.9,13.0,48,30,16,30.12,30.00,7,3,13,0.00
2013-1-31,69.0,53.6,35.0,26.0,18.5,14.0,60,28,16,30.09,29.97,5,2,7,0.00
2013-2-1,69.0,50.1,35.0,23.0,18.4,12.0,56,31,16,30.03,29.94,6,2,8,0.00
2013-2-2,67.0,53.1,41.0,26.0,19.0,13.0,46,28,16,30.09,29.97,6,2,8,0.00
2013-2-3,64.0,53.5,46.0,42.0,28.1,16.0,81,41,17,30.00,29.85,9,4,12,0.00
2013-2-4,70.0,52.3,36.0,28.0,19.3,7.0,63,31,16,29.91,29.82,6,2,8,0.00
2013-2-5,72.0,53.5,34.0,22.0,14.9,4.0,44,23,15,29.88,29.73,10,3,15,0.00
2013-2-6,65.0,50.7,41.0,32.0,19.1,2.0,65,32,16,29.85,29.73,15,5,21,0.00
2013-2-7,68.0,50.5,31.0,21.0,10.9,-2.0,36,20,16,29.88,29.65,15,4,22,0.00
2013-2-8,47.0,41.3,35.0,24.0,11.9,4.0,60,31,20,29.65,29.59,18,11,28,0.00
2013-2-9,49.0,39.0,31.0,17.0,12.3,3.0,51,35,20,29.76,29.59,17,9,23,0.00
2013-2-10,51.0,39.3,29.0,23.0,11.4,3.0,56,34,20,29.82,29.73,8,4,14,0.00
2013-2-11,50.0,40.3,30.0,23.0,11.7,-5.0,56,34,19,29.97,29.79,11,4,17,0.00
2013-2-12,59.0,40.0,24.0,16.0,3.5,-7.0,38,22,18,30.06,29.97,6,2,8,0.00
2013-2-13,64.0,46.0,29.0,18.0,8.0,-2.0,29,21,17,30.06,29.94,7,2,9,0.00
2013-2-14,66.0,49.7,33.0,19.0,12.5,5.0,39,23,16,30.03,29.94,7,2,12,0.00
2013-2-15,64.0,51.1,35.0,18.0,11.3,2.0,37,20,16,30.09,30.00,16,4,18,0.00
2013-2-16,68.0,50.1,34.0,20.0,8.7,-2.0,22,18,16,30.09,29.82,12,4,17,0.00
2013-2-17,67.0,51.6,34.0,19.0,10.2,-2.0,22,19,16,29.82,29.70,16,6,23,0.00
2013-2-18,68.0,50.4,34.0,20.0,10.3,0.0,27,20,16,29.79,29.67,7,3,12,0.00
2013-2-19,62.0,43.6,31.0,25.0,17.2,2.0,66,37,17,29.67,29.41,15,6,23,0.00
2013-2-20,47.0,37.4,28.0,36.0,22.9,13.0,100,60,32,29.73,29.41,17,11,24,0.04
2013-2-21,54.0,39.3,31.0,27.0,15.0,2.0,79,41,19,29.85,29.70,9,4,13,0.04
2013-2-22,59.0,43.5,28.0,19.0,12.8,4.0,53,31,18,29.97,29.82,8,3,9,0.00
2013-2-23,64.0,48.7,32.0,19.0,15.7,6.0,48,29,16,29.91,29.67,23,10,31,0.00
2013-2-24,56.0,43.0,31.0,13.0,4.5,-4.0,22,20,18,29.97,29.85,11,3,17,0.00
2013-2-25,65.0,46.9,27.0,18.0,7.3,-7.0,24,20,16,30.03,29.82,18,4,24,0.00
2013-2-26,61.0,48.4,37.0,17.0,8.4,1.0,23,19,18,29.94,29.79,10,4,17,0.00
2013-2-27,61.0,45.0,29.0,16.0,5.7,-6.0,22,19,17,30.12,29.94,7,2,12,0.00
2013-2-28,69.0,47.3,29.0,21.0,6.9,-6.0,21,19,16,30.18,30.06,7,2,13,0.00
2013-3-1,72.0,54.7,35.0,22.0,12.0,-1.0,22,18,15,30.18,30.09,10,4,16,0.00
2013-3-2,77.0,59.1,39.0,24.0,14.9,3.0,22,18,14,30.12,29.91,7,2,10,0.00
2013-3-3,72.0,60.6,47.0,22.0,16.3,8.0,24,18,15,29.91,29.73,21,10,29,0.00
2013-3-4,70.0,55.2,46.0,28.0,21.9,13.0,46,29,15,29.91,29.76,18,6,25,0.00
2013-3-5,76.0,54.6,40.0,25.0,19.2,3.0,43,27,14,29.88,29.76,7,3,12,0.00
2013-3-6,62.0,50.5,39.0,31.0,22.9,12.0,67,36,19,29.82,29.73,15,6,21,0.00
2013-3-7,57.0,44.9,37.0,27.0,24.3,21.0,61,45,26,29.73,29.59,9,2,14,0.00
2013-3-8,52.0,43.6,39.0,41.0,22.8,10.0,96,47,19,29.67,29.50,18,9,25,0.04
2013-3-9,59.0,47.5,39.0,28.0,20.7,12.0,65,36,18,29.97,29.67,16,9,26,0.04
2013-3-10,67.0,54.2,38.0,19.0,15.1,3.0,40,22,16,30.09,29.97,7,3,9,0.00
2013-3-11,76.0,56.1,33.0,23.0,12.9,-1.0,26,18,14,30.03,29.91,6,2,8,0.00
2013-3-12,77.0,59.6,37.0,24.0,14.6,0.0,23,17,14,30.00,29.88,10,3,15,0.00
2013-3-13,82.0,64.6,44.0,26.0,17.6,7.0,21,17,13,30.03,29.94,12,4,16,0.00
2013-3-14,87.0,68.7,44.0,28.0,19.6,7.0,21,16,12,30.00,29.94,11,3,15,0.00
2013-3-15,89.0,70.9,49.0,29.0,21.3,11.0,25,16,11,29.94,29.82,14,4,20,0.00
2013-3-16,80.0,67.5,56.0,26.0,19.5,13.0,18,16,13,29.82,29.76,19,11,28,0.00
2013-3-17,76.0,63.9,55.0,23.0,18.0,13.0,26,17,14,29.85,29.76,21,10,26,0.00
2013-3-18,78.0,62.9,49.0,25.0,17.1,10.0,20,17,14,29.88,29.76,15,6,23,0.00
2013-3-19,76.0,65.0,53.0,23.0,18.6,14.0,27,17,14,29.94,29.82,21,11,28,0.00
2013-3-20,74.0,62.0,48.0,28.0,22.7,16.0,38,23,14,29.94,29.76,26,9,32,0.00
2013-3-21,76.0,61.8,51.0,32.0,23.7,14.0,45,25,14,29.79,29.65,23,10,30,0.00
2013-3-22,73.0,57.9,47.0,24.0,18.5,11.0,35,22,15,29.76,29.65,24,10,32,0.00
2013-3-23,67.0,53.5,41.0,19.0,13.7,8.0,29,21,16,29.88,29.76,17,5,20,0.00
2013-3-24,73.0,55.8,42.0,23.0,12.6,3.0,21,18,14,29.88,29.79,6,2,9,0.00
2013-3-25,82.0,61.6,38.0,26.0,16.2,4.0,25,17,13,29.82,29.76,9,2,15,0.00
2013-3-26,76.0,63.5,48.0,23.0,18.1,11.0,25,17,14,29.79,29.73,15,6,18,0.00
2013-3-27,73.0,61.4,49.0,25.0,19.5,12.0,34,20,15,29.85,29.70,14,6,22,0.00
2013-3-28,77.0,62.7,50.0,34.0,26.8,18.0,54,28,14,29.94,29.79,16,7,22,0.00
2013-3-29,82.0,63.6,48.0,31.0,26.0,20.0,44,27,13,29.97,29.88,7,2,12,0.00
2013-3-30,81.0,68.5,54.0,29.0,23.1,-99.9,31,20,13,29.94,29.88,8,3,13,0.00
2013-3-31,77.0,60.1,50.0,32.0,24.6,16.0,40,27,14,29.88,29.82,17,7,23,0.00
2013-4-1,68.0,54.8,42.0,30.0,25.7,19.0,62,35,16,29.88,29.82,18,10,25,0.00
2013-4-2,74.0,60.0,46.0,31.0,25.6,17.0,53,30,14,29.91,29.85,13,6,17,0.00
2013-4-3,82.0,64.7,49.0,29.0,24.6,16.0,44,24,12,29.94,29.88,7,3,14,0.00
2013-4-4,82.0,66.1,50.0,30.0,23.0,16.0,33,20,13,29.91,29.85,21,7,25,0.00
2013-4-5,74.0,63.0,54.0,42.0,30.3,20.0,64,31,15,29.88,29.82,18,12,24,0.00
2013-4-6,74.0,61.0,51.0,42.0,28.1,20.0,66,32,14,29.88,29.79,17,10,22,0.00
2013-4-7,76.0,61.6,52.0,33.0,26.4,18.0,44,28,14,29.82,29.62,17,10,22,0.00
2013-4-8,57.0,51.8,47.0,36.0,24.1,12.0,61,35,21,29.65,29.38,28,16,37,0.00
2013-4-9,67.0,53.5,43.0,27.0,17.4,11.0,44,26,16,29.85,29.62,15,9,21,0.00
2013-4-10,77.0,61.2,47.0,24.0,16.4,8.0,20,17,14,29.97,29.85,12,4,16,0.00
2013-4-11,79.0,65.3,51.0,31.0,20.0,11.0,37,18,13,29.85,29.65,20,6,25,0.00
2013-4-12,84.0,67.1,51.0,33.0,27.1,17.0,44,25,12,29.76,29.65,7,3,14,0.00
2013-4-13,83.0,70.7,51.0,28.0,23.4,16.0,34,18,12,29.76,29.59,23,9,32,0.00
2013-4-14,78.0,66.8,56.0,33.0,24.6,17.0,40,21,14,29.65,29.53,28,17,36,0.00
2013-4-15,70.0,58.8,49.0,33.0,24.3,16.0,52,29,15,29.62,29.53,25,16,32,0.00
2013-4-16,59.0,49.6,39.0,28.0,16.4,8.0,50,28,18,29.76,29.53,22,15,31,0.00
2013-4-17,64.0,50.8,39.0,20.0,13.0,4.0,36,22,17,29.97,29.76,11,6,15,0.00
2013-4-18,70.0,53.0,40.0,21.0,10.8,1.0,21,18,15,30.09,29.97,7,3,13,0.00
2013-4-19,80.0,58.1,38.0,26.0,13.2,1.0,20,17,13,30.03,29.85,14,4,18,0.00
2013-4-20,85.0,69.2,53.0,27.0,20.1,12.0,19,16,12,29.91,29.82,12,4,15,0.00
2013-4-21,89.0,71.5,50.0,29.0,21.7,13.0,25,16,11,29.91,29.85,12,3,17,0.00
2013-4-22,88.0,72.6,53.0,29.0,21.6,12.0,20,15,11,29.85,29.73,14,7,20,0.00
2013-4-23,77.0,65.4,54.0,28.0,21.6,12.0,33,20,14,29.91,29.73,12,5,18,0.00
2013-4-24,82.0,65.2,47.0,40.0,20.9,8.0,59,20,13,29.79,29.73,17,5,25,0.00
2013-4-25,79.0,63.1,49.0,41.0,31.6,21.0,67,36,13,29.91,29.73,12,7,16,0.00
2013-4-26,88.0,68.7,52.0,33.0,26.6,17.0,46,24,11,30.03,29.91,7,4,17,0.00
2013-4-27,90.0,72.8,56.0,29.0,23.3,17.0,26,16,11,30.06,29.94,12,4,17,0.00
2013-4-28,94.0,76.0,60.0,29.0,22.8,16.0,18,14,10,29.94,29.82,11,4,16,0.00
2013-4-29,93.0,77.2,61.0,29.0,23.3,16.0,17,14,10,29.82,29.70,17,6,23,0.00
2013-4-30,87.0,76.1,64.0,28.0,23.3,17.0,18,14,12,29.73,29.62,17,10,24,0.00
2013-5-1,81.0,68.4,55.0,38.0,25.7,16.0,46,22,13,30.06,29.70,13,5,17,0.00
2013-5-2,78.0,65.3,54.0,25.0,18.3,12.0,19,16,14,30.18,30.03,13,5,15,0.00
2013-5-3,88.0,67.8,47.0,29.0,19.0,5.0,20,16,11,30.03,29.76,12,3,17,0.00
2013-5-4,89.0,70.5,55.0,28.0,20.8,13.0,19,15,11,29.79,29.62,12,6,22,0.00
2013-5-5,69.0,63.0,50.0,36.0,23.4,16.0,58,24,16,29.73,29.62,13,6,21,0.00
2013-5-6,71.0,58.5,48.0,40.0,33.2,19.0,71,41,18,29.82,29.70,18,5,25,0.00
2013-5-7,68.0,56.3,43.0,34.0,28.6,22.0,54,36,18,29.85,29.76,17,7,22,0.00
2013-5-8,77.0,59.8,43.0,38.0,33.2,27.0,68,40,16,29.91,29.82,13,5,29,0.00
2013-5-9,79.0,63.0,50.0,47.0,36.3,25.0,65,42,16,29.97,29.88,12,5,18,0.00
2013-5-10,85.0,69.1,53.0,43.0,31.8,-99.9,66,32,12,30.03,29.94,10,4,17,0.00
2013-5-11,91.0,75.6,59.0,37.0,28.5,-99.9,34,20,10,30.06,29.97,13,4,17,0.00
2013-5-12,95.0,80.5,63.0,34.0,26.4,17.0,27,14,10,30.06,29.97,12,4,16,0.00
2013-5-13,97.0,83.2,67.0,36.0,28.2,20.0,21,14,10,30.00,29.85,13,5,20,0.00
2013-5-14,94.0,80.9,66.0,29.0,24.9,19.0,16,13,10,29.91,29.73,17,8,30,0.00
2013-5-15,89.0,75.9,61.0,30.0,24.0,16.0,23,15,11,29.88,29.82,17,11,26,0.00
2013-5-16,86.0,69.8,58.0,41.0,21.5,-99.9,50,25,12,29.82,29.76,20,10,28,0.00
2013-5-17,75.0,67.5,58.0,42.0,34.1,-99.9,52,34,24,29.82,29.76,20,15,28,0.00
2013-5-18,83.0,68.9,55.0,38.0,30.0,21.0,52,26,12,29.91,29.79,15,10,22,0.00
2013-5-19,88.0,72.7,58.0,29.0,22.5,16.0,26,15,11,29.88,29.82,16,8,25,0.00
2013-5-20,87.0,72.1,56.0,28.0,21.4,13.0,18,15,12,29.97,29.85,11,4,14,0.00
2013-5-21,93.0,75.0,55.0,29.0,22.4,13.0,21,14,10,29.88,29.70,14,5,20,0.00
2013-5-22,89.0,72.8,58.0,43.0,28.9,19.0,57,22,11,29.70,29.65,18,9,25,0.00
2013-5-23,79.0,63.6,50.0,45.0,34.3,21.0,82,41,13,29.79,29.65,20,8,30,0.00
2013-5-24,85.0,66.4,49.0,44.0,31.0,20.0,77,33,12,29.82,29.76,13,5,15,0.00
2013-5-25,84.0,67.2,50.0,33.0,24.0,17.0,48,21,12,29.85,29.76,18,6,26,0.00
2013-5-26,82.0,68.9,55.0,38.0,26.8,17.0,38,22,13,29.85,29.79,20,10,28,0.00
2013-5-27,86.0,70.2,57.0,40.0,31.0,21.0,45,26,12,29.85,29.76,20,11,28,0.00
2013-5-28,80.0,68.3,58.0,43.0,34.0,25.0,51,30,16,29.76,29.67,21,13,30,0.00
2013-5-29,86.0,71.9,57.0,37.0,30.3,21.0,43,24,12,29.76,29.65,25,13,35,0.00
2013-5-30,93.0,76.7,59.0,44.0,30.6,24.0,40,21,10,29.82,29.70,17,9,22,0.00
2013-5-31,95.0,79.5,64.0,35.0,27.2,21.0,30,16,10,29.88,29.76,16,6,22,0.00
2013-6-1,97.0,81.6,63.0,36.0,27.0,21.0,22,14,10,29.88,29.73,13,5,17,0.00
2013-6-2,100.0,85.0,64.0,37.0,27.8,18.0,23,13,9,29.76,29.62,14,4,25,0.00
2013-6-3,97.0,80.9,59.0,35.0,26.7,18.0,29,15,9,29.76,29.67,10,3,15,0.00
2013-6-4,97.0,77.4,58.0,37.0,27.8,19.0,36,18,9,29.85,29.73,11,4,15,0.00
2013-6-5,101.0,81.6,62.0,37.0,25.8,17.0,17,13,9,29.88,29.73,11,4,15,0.00
2013-6-6,105.0,85.2,67.0,38.0,28.6,19.0,23,13,9,29.85,29.70,12,4,17,0.00
2013-6-7,105.0,85.9,66.0,37.0,27.7,19.0,16,12,9,29.82,29.67,13,5,23,0.00
2013-6-8,107.0,90.2,72.0,39.0,30.0,22.0,15,12,10,29.76,29.70,14,5,25,0.00
2013-6-9,101.0,84.0,65.0,37.0,28.0,18.0,18,13,9,29.82,29.73,11,3,20,0.00
2013-6-10,92.0,77.6,63.0,29.0,24.0,18.0,19,14,10,29.82,29.73,19,8,26,0.00
2013-6-11,100.0,81.9,61.0,37.0,28.0,22.0,22,15,10,29.88,29.79,12,4,17,0.00
2013-6-12,103.0,82.8,67.0,38.0,26.7,19.0,16,13,10,29.88,29.79,14,5,24,0.00
2013-6-13,96.0,79.2,61.0,38.0,29.3,19.0,40,18,10,29.91,29.76,17,7,23,0.00
2013-6-14,97.0,75.4,60.0,32.0,25.2,18.0,30,16,9,29.85,29.67,10,5,15,0.00
2013-6-15,96.0,71.1,55.0,35.0,25.5,17.0,41,19,10,29.85,29.73,14,3,17,0.00
2013-6-16,94.0,75.4,58.0,29.0,24.4,18.0,23,16,10,29.91,29.82,13,7,18,0.00
2013-6-17,97.0,79.3,60.0,35.0,25.1,16.0,21,14,10,29.94,29.79,13,6,18,0.00
2013-6-18,94.0,78.8,62.0,33.0,26.9,20.0,30,16,10,29.85,29.73,22,9,28,0.00
2013-6-19,90.0,71.8,59.0,41.0,30.6,18.0,43,25,11,29.79,29.67,17,11,25,0.00
2013-6-20,90.0,67.4,56.0,28.0,22.0,16.0,31,19,11,29.79,29.70,12,7,15,0.00
2013-6-21,91.0,89.8,87.0,29.0,28.5,28.0,12,11,11,29.82,29.82,11,9,16,0.00
2013-6-22,95.0,85.3,63.0,44.0,30.2,27.0,37,15,10,29.85,29.79,10,7,15,0.00
2013-6-23,88.0,75.9,61.0,44.0,34.1,25.0,42,24,11,29.79,29.67,20,8,30,0.00
2013-6-24,83.0,72.0,59.0,45.0,40.3,34.0,54,33,20,29.82,29.67,18,11,24,0.00
2013-6-25,92.0,77.8,61.0,50.0,44.7,37.0,64,35,15,29.91,29.79,16,9,22,0.00
2013-6-26,102.0,81.2,66.0,51.0,45.7,35.0,55,33,10,29.94,29.85,9,3,13,0.00
2013-6-27,105.0,85.4,69.0,45.0,39.9,29.0,39,23,10,30.00,29.88,10,4,17,0.00
2013-6-28,107.0,93.1,74.0,41.0,35.2,26.0,29,14,10,29.97,29.79,12,5,18,0.00
2013-6-29,110.0,93.3,76.0,39.0,32.4,23.0,18,12,9,29.88,29.73,11,5,17,0.00
2013-6-30,113.0,95.6,78.0,39.0,33.8,27.0,19,12,8,29.82,29.70,11,5,17,0.00
2013-7-1,107.0,100.5,84.0,39.0,35.9,26.0,15,11,10,29.85,29.76,14,7,17,0.00
2013-7-2,103.0,90.4,75.0,38.0,34.4,29.0,21,14,10,29.91,29.79,15,6,22,0.00
2013-7-3,105.0,92.7,78.0,38.0,35.9,33.0,21,14,10,29.85,29.70,13,8,18,0.00
2013-7-4,107.0,93.8,77.0,41.0,37.9,35.0,27,16,10,29.79,29.65,14,6,20,0.00
2013-7-5,105.0,91.4,75.0,44.0,37.2,30.0,26,16,10,29.76,29.65,16,6,24,0.00
2013-7-6,105.0,84.7,70.0,45.0,38.6,23.0,37,22,10,29.76,29.65,10,3,14,0.00
2013-7-7,105.0,92.4,73.0,38.0,31.0,23.0,15,11,9,29.82,29.67,16,6,29,0.00
2013-7-8,105.0,88.2,70.0,37.0,30.2,24.0,18,13,9,29.94,29.82,14,4,20,0.00
2013-7-9,106.0,89.0,72.0,38.0,29.5,22.0,15,12,10,30.00,29.85,12,5,17,0.00
2013-7-10,102.0,93.2,80.0,43.0,34.0,26.0,27,13,10,29.94,29.82,15,8,23,0.00
2013-7-11,86.0,79.0,75.0,48.0,43.1,36.0,36,28,21,29.91,29.82,8,4,12,0.00
2013-7-12,97.0,77.4,70.0,47.0,43.9,39.0,41,32,15,29.88,29.82,6,2,8,0.00
2013-7-13,101.0,94.2,73.0,37.0,34.5,30.0,20,12,11,29.94,29.76,9,4,13,0.00
2013-7-14,100.0,89.6,74.0,37.0,32.5,26.0,17,13,11,29.91,29.79,8,4,14,0.00
2013-7-15,100.0,89.5,75.0,37.0,32.5,25.0,17,13,11,29.82,29.67,11,6,17,0.00
2013-7-16,98.0,85.8,69.0,37.0,27.0,21.0,16,12,9,29.85,29.73,16,6,20,0.00
2013-7-17,95.0,74.9,63.0,30.0,22.5,18.0,17,14,10,29.94,29.85,7,3,12,0.00
2013-7-18,103.0,77.7,67.0,37.0,23.9,19.0,16,14,9,29.94,29.79,7,3,9,0.00
2013-7-19,107.0,86.2,73.0,39.0,28.2,22.0,15,12,10,29.88,29.73,9,3,17,0.00
2013-7-20,96.0,84.3,77.0,58.0,42.9,-99.9,43,25,13,29.85,29.70,13,5,17,0.00
2013-7-21,90.0,79.4,70.0,67.0,57.8,50.0,89,50,28,29.88,29.76,22,5,25,0.50
2013-7-22,90.0,76.6,70.0,70.0,62.4,52.0,93,65,28,29.94,29.85,16,4,24,0.08
2013-7-23,90.0,75.8,68.0,62.0,54.2,46.0,79,52,24,29.97,29.85,7,2,10,0.08
2013-7-24,81.0,74.6,72.0,48.0,46.9,40.0,43,38,23,29.91,29.82,6,4,8,0.00
2013-7-25,100.0,80.5,73.0,47.0,41.9,35.0,37,28,11,29.91,29.85,7,4,10,0.00
2013-7-26,88.0,75.8,72.0,67.0,62.9,40.0,84,67,23,30.00,29.94,6,1,10,0.04
2013-7-27,89.0,77.2,70.0,67.0,57.0,44.0,84,55,21,29.97,29.94,6,2,7,0.04
2013-7-28,99.0,86.2,71.0,43.0,36.2,22.0,34,19,11,29.82,29.73,13,4,16,0.00
2013-7-29,97.0,80.8,68.0,35.0,25.1,20.0,18,13,9,29.91,29.79,9,4,13,0.00
2013-7-30,99.0,82.4,64.0,40.0,35.7,28.0,39,21,11,30.00,29.88,14,4,17,0.00
2013-7-31,101.0,84.7,66.0,43.0,35.7,21.0,42,20,10,30.00,29.79,9,4,14,0.00
2013-8-1,89.0,74.7,64.0,28.0,22.9,17.0,20,14,11,29.88,29.79,10,5,15,0.00
2013-8-2,95.0,75.9,62.0,35.0,29.5,23.0,31,20,10,29.85,29.76,9,3,13,0.00
2013-8-3,96.0,78.2,59.0,36.0,25.4,18.0,28,15,10,29.91,29.82,8,3,12,0.00
2013-8-4,97.0,76.3,63.0,33.0,26.4,22.0,25,16,9,29.91,29.82,8,3,12,0.00
2013-8-5,95.0,75.1,63.0,30.0,22.8,18.0,17,14,10,29.94,29.82,9,3,14,0.00
2013-8-6,98.0,78.8,64.0,31.0,24.2,17.0,17,13,9,29.94,29.82,12,4,17,0.00
2013-8-7,93.0,79.6,64.0,29.0,24.2,17.0,17,13,10,29.94,29.85,14,6,20,0.00
2013-8-13,99.0,80.8,68.0,37.0,22.5,-99.9,16,13,10,29.94,29.85,9,3,14,0.00
2013-8-14,99.0,78.7,68.0,37.0,21.9,-99.9,16,13,9,29.91,29.82,8,3,12,0.00
2013-8-15,102.0,69.3,69.0,38.0,-2.1,-99.9,16,10,10,29.91,29.85,10,5,15,0.00
2013-8-16,104.0,75.3,71.0,39.0,21.5,-99.9,29,18,10,29.94,29.82,10,4,14,0.00
2013-8-17,104.0,81.5,69.0,43.0,34.3,-99.9,38,22,10,29.91,29.73,9,4,17,0.00
2013-8-18,93.0,79.9,69.0,62.0,46.5,33.0,47,32,19,29.91,29.82,6,2,10,0.38
2013-8-19,93.0,71.8,72.0,56.0,30.0,-99.9,49,33,17,29.94,29.79,17,5,21,0.38
2013-8-21,100.0,88.0,71.0,40.0,34.3,29.0,28,16,11,29.88,29.76,8,3,15,0.00
2013-8-22,101.0,88.6,73.0,39.0,35.3,30.0,28,16,11,29.91,29.79,11,4,15,0.00
2013-8-23,99.0,83.2,69.0,50.0,40.5,26.0,51,25,11,29.82,29.70,7,3,18,0.00
2013-8-24,98.0,80.3,67.0,54.0,32.9,-99.9,41,20,12,29.82,29.73,17,4,26,0.00
2013-8-25,90.0,73.8,64.0,59.0,50.8,41.0,65,46,19,29.91,29.82,15,4,20,0.00
2013-8-26,75.0,70.5,67.0,68.0,63.1,58.0,92,78,58,29.94,29.85,13,4,17,0.00
2013-8-27,87.0,71.3,66.0,68.0,63.1,52.0,97,80,30,29.88,29.82,5,0,8,0.00
2013-10-1,85.0,78.2,64.0,27.0,25.8,25.0,24,15,12,29.79,29.76,8,5,12,0.00
2013-10-2,88.0,70.2,56.0,39.0,28.7,25.0,39,24,11,29.82,29.76,17,4,23,0.00
2013-10-3,79.0,66.1,56.0,41.0,26.5,13.0,54,25,13,29.82,29.70,15,8,21,0.00
2013-10-4,70.0,60.0,51.0,21.0,15.7,11.0,20,18,15,30.06,29.82,10,5,17,0.00
2013-10-5,72.0,57.4,48.0,22.0,12.5,-99.9,20,18,15,30.15,30.03,7,3,14,0.00
2013-10-6,74.0,56.7,44.0,22.0,13.3,4.0,20,18,14,30.06,29.94,11,2,15,0.00
2013-10-7,78.0,54.0,47.0,25.0,12.4,8.0,20,19,14,29.94,29.79,5,1,8,0.00
2013-10-18,80.0,62.0,42.0,25.0,16.9,10.0,27,18,13,29.94,29.85,8,2,12,0.00
2013-10-19,75.0,52.2,41.0,23.0,8.2,-99.9,21,18,14,29.97,29.91,5,2,6,0.00
2013-10-20,77.0,59.5,45.0,24.0,15.5,7.0,21,18,14,29.91,29.82,6,2,8,0.00
2013-10-21,80.0,59.2,44.0,25.0,14.6,4.0,21,17,13,29.91,29.82,8,1,14,0.00
2013-10-22,81.0,64.4,44.0,26.0,17.5,4.0,21,16,13,29.91,29.85,10,4,15,0.00
2013-10-23,80.0,62.9,45.0,26.0,16.9,7.0,21,17,13,29.85,29.79,10,3,15,0.00
2013-10-24,83.0,65.3,49.0,26.0,18.2,10.0,20,16,12,29.91,29.79,6,2,8,0.00